sensor_id;sensor_type;location;lat;lon;timestamp;temperature;humidity
12981;DHT22;6555;50.468;8.480;2023-08-24T00:03:36;23.50;41.90
12981;DHT22;6555;50.468;8.480;2023-08-24T00:08:40;23.40;41.70
12981;DHT22;6555;50.468;8.480;2023-08-24T00:13:45;23.40;41.80
12981;DHT22;6555;50.468;8.480;2023-08-24T00:18:51;23.30;42.10
12981;DHT22;6555;50.468;8.480;2023-08-24T00:23:54;23.30;42.00
12981;DHT22;6555;50.468;8.480;2023-08-24T00:29:00;23.20;42.70
12981;DHT22;6555;50.468;8.480;2023-08-24T00:34:04;23.20;42.30
12981;DHT22;6555;50.468;8.480;2023-08-24T00:39:08;23.10;42.20
12981;DHT22;6555;50.468;8.480;2023-08-24T00:44:14;23.10;42.30
12981;DHT22;6555;50.468;8.480;2023-08-24T00:49:17;23.00;42.50
12981;DHT22;6555;50.468;8.480;2023-08-24T00:54:21;22.90;42.40
12981;DHT22;6555;50.468;8.480;2023-08-24T00:59:27;22.90;42.60
12981;DHT22;6555;50.468;8.480;2023-08-24T01:04:32;22.80;42.80
12981;DHT22;6555;50.468;8.480;2023-08-24T01:09:39;22.80;42.60
12981;DHT22;6555;50.468;8.480;2023-08-24T01:14:55;22.70;42.70
12981;DHT22;6555;50.468;8.480;2023-08-24T01:20:05;22.60;43.20
12981;DHT22;6555;50.468;8.480;2023-08-24T01:25:13;22.60;42.90
12981;DHT22;6555;50.468;8.480;2023-08-24T01:30:22;22.50;43.30
12981;DHT22;6555;50.468;8.480;2023-08-24T01:35:26;22.40;43.20
12981;DHT22;6555;50.468;8.480;2023-08-24T01:40:36;22.40;43.20
12981;DHT22;6555;50.468;8.480;2023-08-24T01:45:45;22.40;43.70
12981;DHT22;6555;50.468;8.480;2023-08-24T01:50:53;22.30;43.50
12981;DHT22;6555;50.468;8.480;2023-08-24T01:55:57;22.20;43.30
12981;DHT22;6555;50.468;8.480;2023-08-24T02:01:05;22.20;43.40
12981;DHT22;6555;50.468;8.480;2023-08-24T02:06:13;22.10;43.70
12981;DHT22;6555;50.468;8.480;2023-08-24T02:11:16;22.10;43.60
12981;DHT22;6555;50.468;8.480;2023-08-24T02:16:23;22.00;43.50
12981;DHT22;6555;50.468;8.480;2023-08-24T02:21:26;22.00;44.00
12981;DHT22;6555;50.468;8.480;2023-08-24T02:26:30;22.00;43.80
12981;DHT22;6555;50.468;8.480;2023-08-24T02:31:35;21.90;43.90
12981;DHT22;6555;50.468;8.480;2023-08-24T02:36:42;21.90;44.00
12981;DHT22;6555;50.468;8.480;2023-08-24T02:41:46;21.90;43.60
12981;DHT22;6555;50.468;8.480;2023-08-24T02:46:56;21.70;43.80
12981;DHT22;6555;50.468;8.480;2023-08-24T02:52:00;21.60;44.20
12981;DHT22;6555;50.468;8.480;2023-08-24T02:57:04;21.50;44.20
12981;DHT22;6555;50.468;8.480;2023-08-24T03:02:10;21.40;44.20
12981;DHT22;6555;50.468;8.480;2023-08-24T03:07:13;21.40;44.50
12981;DHT22;6555;50.468;8.480;2023-08-24T03:12:17;21.40;44.50
12981;DHT22;6555;50.468;8.480;2023-08-24T03:17:22;21.40;44.60
12981;DHT22;6555;50.468;8.480;2023-08-24T03:22:26;21.30;44.80
12981;DHT22;6555;50.468;8.480;2023-08-24T03:27:30;21.20;44.60
12981;DHT22;6555;50.468;8.480;2023-08-24T03:32:36;21.20;44.70
12981;DHT22;6555;50.468;8.480;2023-08-24T03:37:39;21.20;45.20
12981;DHT22;6555;50.468;8.480;2023-08-24T03:42:43;21.20;45.00
12981;DHT22;6555;50.468;8.480;2023-08-24T03:47:48;21.10;45.10
12981;DHT22;6555;50.468;8.480;2023-08-24T03:52:54;21.10;45.50
12981;DHT22;6555;50.468;8.480;2023-08-24T03:57:58;21.10;45.50
12981;DHT22;6555;50.468;8.480;2023-08-24T04:03:03;21.10;45.40
12981;DHT22;6555;50.468;8.480;2023-08-24T04:08:07;21.10;45.80
12981;DHT22;6555;50.468;8.480;2023-08-24T04:13:11;21.10;45.70
12981;DHT22;6555;50.468;8.480;2023-08-24T04:18:16;21.10;45.60
12981;DHT22;6555;50.468;8.480;2023-08-24T04:23:25;21.10;45.90
12981;DHT22;6555;50.468;8.480;2023-08-24T04:28:29;21.10;46.30
12981;DHT22;6555;50.468;8.480;2023-08-24T04:33:34;21.10;45.90
12981;DHT22;6555;50.468;8.480;2023-08-24T04:38:37;21.10;46.30
12981;DHT22;6555;50.468;8.480;2023-08-24T04:43:42;21.20;46.10
12981;DHT22;6555;50.468;8.480;2023-08-24T04:48:48;21.10;46.20
12981;DHT22;6555;50.468;8.480;2023-08-24T04:53:51;21.10;46.60
12981;DHT22;6555;50.468;8.480;2023-08-24T04:58:55;21.00;46.30
12981;DHT22;6555;50.468;8.480;2023-08-24T05:04:01;21.00;46.40
12981;DHT22;6555;50.468;8.480;2023-08-24T05:09:04;20.90;46.80
12981;DHT22;6555;50.468;8.480;2023-08-24T05:14:08;20.90;46.80
12981;DHT22;6555;50.468;8.480;2023-08-24T05:19:13;20.90;47.00
12981;DHT22;6555;50.468;8.480;2023-08-24T05:24:16;21.00;47.30
12981;DHT22;6555;50.468;8.480;2023-08-24T05:29:19;21.00;47.10
12981;DHT22;6555;50.468;8.480;2023-08-24T05:34:24;21.10;47.30
12981;DHT22;6555;50.468;8.480;2023-08-24T05:39:28;21.20;47.50
12981;DHT22;6555;50.468;8.480;2023-08-24T05:44:32;21.20;47.20
12981;DHT22;6555;50.468;8.480;2023-08-24T05:49:37;21.20;47.30
12981;DHT22;6555;50.468;8.480;2023-08-24T05:54:41;21.20;47.80
12981;DHT22;6555;50.468;8.480;2023-08-24T05:59:45;21.30;47.70
12981;DHT22;6555;50.468;8.480;2023-08-24T06:04:50;21.30;47.90
12981;DHT22;6555;50.468;8.480;2023-08-24T06:09:56;21.40;48.10
12981;DHT22;6555;50.468;8.480;2023-08-24T06:15:00;21.50;48.00
12981;DHT22;6555;50.468;8.480;2023-08-24T06:20:09;21.60;48.00
12981;DHT22;6555;50.468;8.480;2023-08-24T06:25:13;21.60;48.50
12981;DHT22;6555;50.468;8.480;2023-08-24T06:30:17;21.60;48.00
12981;DHT22;6555;50.468;8.480;2023-08-24T06:35:23;21.60;48.30
12981;DHT22;6555;50.468;8.480;2023-08-24T06:40:27;21.70;48.80
12981;DHT22;6555;50.468;8.480;2023-08-24T06:45:31;21.70;48.70
12981;DHT22;6555;50.468;8.480;2023-08-24T06:50:37;21.70;48.90
12981;DHT22;6555;50.468;8.480;2023-08-24T06:55:40;21.80;49.20
12981;DHT22;6555;50.468;8.480;2023-08-24T07:00:44;21.80;48.90
12981;DHT22;6555;50.468;8.480;2023-08-24T07:05:50;21.80;49.00
12981;DHT22;6555;50.468;8.480;2023-08-24T07:10:59;21.90;49.40
12981;DHT22;6555;50.468;8.480;2023-08-24T07:16:03;21.90;50.00
12981;DHT22;6555;50.468;8.480;2023-08-24T07:21:10;22.00;49.70
12981;DHT22;6555;50.468;8.480;2023-08-24T07:26:17;22.10;50.30
12981;DHT22;6555;50.468;8.480;2023-08-24T07:31:20;22.20;50.20
12981;DHT22;6555;50.468;8.480;2023-08-24T07:36:26;22.50;50.60
12981;DHT22;6555;50.468;8.480;2023-08-24T07:41:32;22.70;51.00
12981;DHT22;6555;50.468;8.480;2023-08-24T07:46:38;22.90;50.60
12981;DHT22;6555;50.468;8.480;2023-08-24T07:51:43;23.10;50.70
12981;DHT22;6555;50.468;8.480;2023-08-24T07:56:49;23.30;50.90
12981;DHT22;6555;50.468;8.480;2023-08-24T08:02:02;23.50;50.60
12981;DHT22;6555;50.468;8.480;2023-08-24T08:07:26;23.70;50.70
12981;DHT22;6555;50.468;8.480;2023-08-24T08:12:41;23.90;51.40
12981;DHT22;6555;50.468;8.480;2023-08-24T08:17:44;24.10;51.70
12981;DHT22;6555;50.468;8.480;2023-08-24T08:22:52;24.30;51.20
12981;DHT22;6555;50.468;8.480;2023-08-24T08:27:56;24.50;51.40
12981;DHT22;6555;50.468;8.480;2023-08-24T08:33:00;24.80;51.50
12981;DHT22;6555;50.468;8.480;2023-08-24T08:38:07;25.10;51.50
12981;DHT22;6555;50.468;8.480;2023-08-24T08:43:11;25.50;51.10
12981;DHT22;6555;50.468;8.480;2023-08-24T08:48:20;25.80;50.50
12981;DHT22;6555;50.468;8.480;2023-08-24T08:53:33;26.20;50.60
12981;DHT22;6555;50.468;8.480;2023-08-24T08:58:37;26.50;50.00
12981;DHT22;6555;50.468;8.480;2023-08-24T09:03:42;26.80;49.60
12981;DHT22;6555;50.468;8.480;2023-08-24T09:08:50;27.10;49.70
12981;DHT22;6555;50.468;8.480;2023-08-24T09:13:55;27.40;49.30
12981;DHT22;6555;50.468;8.480;2023-08-24T09:19:02;27.60;49.10
12981;DHT22;6555;50.468;8.480;2023-08-24T09:24:14;27.90;48.60
12981;DHT22;6555;50.468;8.480;2023-08-24T09:29:22;28.10;48.10
12981;DHT22;6555;50.468;8.480;2023-08-24T09:34:26;28.30;48.00
12981;DHT22;6555;50.468;8.480;2023-08-24T09:39:39;28.50;47.80
12981;DHT22;6555;50.468;8.480;2023-08-24T09:44:44;28.60;47.00
12981;DHT22;6555;50.468;8.480;2023-08-24T09:49:49;28.80;46.90
12981;DHT22;6555;50.468;8.480;2023-08-24T09:55:00;28.90;46.40
12981;DHT22;6555;50.468;8.480;2023-08-24T10:00:10;29.00;46.80
12981;DHT22;6555;50.468;8.480;2023-08-24T10:05:18;29.20;46.50
12981;DHT22;6555;50.468;8.480;2023-08-24T10:10:45;29.30;45.90
12981;DHT22;6555;50.468;8.480;2023-08-24T10:15:54;29.30;45.90
12981;DHT22;6555;50.468;8.480;2023-08-24T10:21:00;29.40;45.50
12981;DHT22;6555;50.468;8.480;2023-08-24T10:26:16;29.50;45.60
12981;DHT22;6555;50.468;8.480;2023-08-24T10:32:00;29.50;45.50
12981;DHT22;6555;50.468;8.480;2023-08-24T10:37:11;29.50;45.70
12981;DHT22;6555;50.468;8.480;2023-08-24T10:48:11;29.90;44.60
12981;DHT22;6555;50.468;8.480;2023-08-24T10:53:39;29.90;43.40
12981;DHT22;6555;50.468;8.480;2023-08-24T10:59:13;29.90;42.80
12981;DHT22;6555;50.468;8.480;2023-08-24T11:04:36;29.90;43.10
12981;DHT22;6555;50.468;8.480;2023-08-24T11:16:05;29.70;43.30
12981;DHT22;6555;50.468;8.480;2023-08-24T11:21:22;29.70;43.70
12981;DHT22;6555;50.468;8.480;2023-08-24T11:26:45;29.90;43.70
12981;DHT22;6555;50.468;8.480;2023-08-24T11:32:00;29.90;43.60
12981;DHT22;6555;50.468;8.480;2023-08-24T11:37:18;30.10;44.20
12981;DHT22;6555;50.468;8.480;2023-08-24T11:42:35;30.20;44.20
12981;DHT22;6555;50.468;8.480;2023-08-24T11:47:45;30.30;43.70
12981;DHT22;6555;50.468;8.480;2023-08-24T11:53:06;30.40;43.10
12981;DHT22;6555;50.468;8.480;2023-08-24T11:58:22;30.40;43.30
12981;DHT22;6555;50.468;8.480;2023-08-24T12:03:34;30.50;42.90
12981;DHT22;6555;50.468;8.480;2023-08-24T12:08:55;30.50;42.60
12981;DHT22;6555;50.468;8.480;2023-08-24T12:14:06;30.50;42.70
12981;DHT22;6555;50.468;8.480;2023-08-24T12:19:21;30.50;42.90
12981;DHT22;6555;50.468;8.480;2023-08-24T12:24:34;30.50;43.60
12981;DHT22;6555;50.468;8.480;2023-08-24T12:29:50;30.50;42.90
12981;DHT22;6555;50.468;8.480;2023-08-24T12:35:04;30.70;43.00
12981;DHT22;6555;50.468;8.480;2023-08-24T12:40:22;30.70;42.40
12981;DHT22;6555;50.468;8.480;2023-08-24T12:45:30;30.70;41.90
12981;DHT22;6555;50.468;8.480;2023-08-24T12:50:43;30.60;42.30
12981;DHT22;6555;50.468;8.480;2023-08-24T12:56:15;30.60;42.30
12981;DHT22;6555;50.468;8.480;2023-08-24T13:01:36;30.60;41.90
12981;DHT22;6555;50.468;8.480;2023-08-24T13:06:54;30.60;42.10
12981;DHT22;6555;50.468;8.480;2023-08-24T13:12:16;30.60;42.60
12981;DHT22;6555;50.468;8.480;2023-08-24T13:17:25;30.60;42.70
12981;DHT22;6555;50.468;8.480;2023-08-24T13:22:33;30.70;43.10
12981;DHT22;6555;50.468;8.480;2023-08-24T13:27:53;30.80;42.60
12981;DHT22;6555;50.468;8.480;2023-08-24T13:33:28;30.80;42.00
12981;DHT22;6555;50.468;8.480;2023-08-24T13:38:55;30.90;41.70
12981;DHT22;6555;50.468;8.480;2023-08-24T13:44:35;30.90;42.10
12981;DHT22;6555;50.468;8.480;2023-08-24T13:50:00;31.00;42.90
12981;DHT22;6555;50.468;8.480;2023-08-24T13:55:34;31.00;42.50
12981;DHT22;6555;50.468;8.480;2023-08-24T14:01:00;31.00;42.30
12981;DHT22;6555;50.468;8.480;2023-08-24T14:06:41;30.90;42.60
12981;DHT22;6555;50.468;8.480;2023-08-24T14:12:09;30.80;42.10
12981;DHT22;6555;50.468;8.480;2023-08-24T14:17:48;30.80;42.60
12981;DHT22;6555;50.468;8.480;2023-08-24T14:23:34;30.60;42.70
12981;DHT22;6555;50.468;8.480;2023-08-24T14:29:28;30.40;42.50
12981;DHT22;6555;50.468;8.480;2023-08-24T14:35:06;30.30;42.80
12981;DHT22;6555;50.468;8.480;2023-08-24T14:40:47;30.20;43.20
12981;DHT22;6555;50.468;8.480;2023-08-24T14:46:10;30.10;43.80
12981;DHT22;6555;50.468;8.480;2023-08-24T14:51:42;30.00;43.50
12981;DHT22;6555;50.468;8.480;2023-08-24T14:57:06;30.00;43.80
12981;DHT22;6555;50.468;8.480;2023-08-24T15:02:42;29.90;43.10
12981;DHT22;6555;50.468;8.480;2023-08-24T15:08:17;29.80;43.60
12981;DHT22;6555;50.468;8.480;2023-08-24T15:13:56;29.70;43.80
12981;DHT22;6555;50.468;8.480;2023-08-24T15:19:33;29.60;43.90
12981;DHT22;6555;50.468;8.480;2023-08-24T15:25:12;29.50;43.70
12981;DHT22;6555;50.468;8.480;2023-08-24T15:30:30;29.20;44.10
12981;DHT22;6555;50.468;8.480;2023-08-24T15:36:03;29.00;44.00
12981;DHT22;6555;50.468;8.480;2023-08-24T15:41:24;28.70;43.90
12981;DHT22;6555;50.468;8.480;2023-08-24T15:47:09;28.30;44.20
12981;DHT22;6555;50.468;8.480;2023-08-24T15:52:27;28.00;44.80
12981;DHT22;6555;50.468;8.480;2023-08-24T15:58:08;27.90;44.20
12981;DHT22;6555;50.468;8.480;2023-08-24T16:03:27;27.80;45.00
12981;DHT22;6555;50.468;8.480;2023-08-24T16:09:13;27.80;45.00
12981;DHT22;6555;50.468;8.480;2023-08-24T16:14:51;27.80;45.80
12981;DHT22;6555;50.468;8.480;2023-08-24T16:20:09;27.80;45.90
12981;DHT22;6555;50.468;8.480;2023-08-24T16:25:43;27.70;45.30
12981;DHT22;6555;50.468;8.480;2023-08-24T16:31:25;27.60;46.00
12981;DHT22;6555;50.468;8.480;2023-08-24T16:37:03;27.60;46.10
12981;DHT22;6555;50.468;8.480;2023-08-24T16:42:22;27.60;46.80
12981;DHT22;6555;50.468;8.480;2023-08-24T16:48:11;27.50;46.10
12981;DHT22;6555;50.468;8.480;2023-08-24T16:53:31;27.50;47.30
12981;DHT22;6555;50.468;8.480;2023-08-24T16:59:05;27.50;46.30
12981;DHT22;6555;50.468;8.480;2023-08-24T17:04:25;27.40;47.40
12981;DHT22;6555;50.468;8.480;2023-08-24T17:09:59;27.20;47.00
12981;DHT22;6555;50.468;8.480;2023-08-24T17:15:19;27.10;47.80
12981;DHT22;6555;50.468;8.480;2023-08-24T17:21:03;27.00;47.10
12981;DHT22;6555;50.468;8.480;2023-08-24T17:26:24;26.90;47.80
12981;DHT22;6555;50.468;8.480;2023-08-24T17:31:58;26.70;47.00
12981;DHT22;6555;50.468;8.480;2023-08-24T17:37:16;26.70;48.30
12981;DHT22;6555;50.468;8.480;2023-08-24T17:42:53;26.60;48.00
12981;DHT22;6555;50.468;8.480;2023-08-24T17:48:10;26.60;48.80
12981;DHT22;6555;50.468;8.480;2023-08-24T17:53:45;26.60;48.60
12981;DHT22;6555;50.468;8.480;2023-08-24T17:59:02;26.50;48.40
12981;DHT22;6555;50.468;8.480;2023-08-24T18:04:35;26.40;48.30
12981;DHT22;6555;50.468;8.480;2023-08-24T18:09:58;26.20;49.30
12981;DHT22;6555;50.468;8.480;2023-08-24T18:15:35;26.10;48.80
12981;DHT22;6555;50.468;8.480;2023-08-24T18:21:06;26.00;49.40
12981;DHT22;6555;50.468;8.480;2023-08-24T18:26:44;25.90;49.40
12981;DHT22;6555;50.468;8.480;2023-08-24T18:32:34;25.80;49.50
12981;DHT22;6555;50.468;8.480;2023-08-24T18:38:23;25.80;49.50
12981;DHT22;6555;50.468;8.480;2023-08-24T18:43:52;25.70;49.50
12981;DHT22;6555;50.468;8.480;2023-08-24T18:49:22;25.70;49.20
12981;DHT22;6555;50.468;8.480;2023-08-24T18:54:54;25.70;49.80
12981;DHT22;6555;50.468;8.480;2023-08-24T19:00:29;25.70;49.40
12981;DHT22;6555;50.468;8.480;2023-08-24T19:05:50;25.70;50.20
12981;DHT22;6555;50.468;8.480;2023-08-24T19:11:55;25.70;49.40
12981;DHT22;6555;50.468;8.480;2023-08-24T19:17:17;25.70;50.20
12981;DHT22;6555;50.468;8.480;2023-08-24T19:22:55;25.60;49.60
12981;DHT22;6555;50.468;8.480;2023-08-24T19:28:18;25.60;50.30
12981;DHT22;6555;50.468;8.480;2023-08-24T19:33:53;25.60;49.40
12981;DHT22;6555;50.468;8.480;2023-08-24T19:39:12;25.50;50.50
12981;DHT22;6555;50.468;8.480;2023-08-24T19:44:55;25.40;49.50
12981;DHT22;6555;50.468;8.480;2023-08-24T19:50:26;25.30;50.70
12981;DHT22;6555;50.468;8.480;2023-08-24T19:56:02;25.20;50.00
12981;DHT22;6555;50.468;8.480;2023-08-24T20:01:25;25.20;50.70
12981;DHT22;6555;50.468;8.480;2023-08-24T20:06:59;25.10;50.00
12981;DHT22;6555;50.468;8.480;2023-08-24T20:12:19;25.00;51.10
12981;DHT22;6555;50.468;8.480;2023-08-24T20:18:00;25.00;50.30
12981;DHT22;6555;50.468;8.480;2023-08-24T20:23:24;24.90;51.10
12981;DHT22;6555;50.468;8.480;2023-08-24T20:28:59;24.70;50.50
12981;DHT22;6555;50.468;8.480;2023-08-24T20:34:25;24.70;51.20
12981;DHT22;6555;50.468;8.480;2023-08-24T20:40:00;24.60;51.10
12981;DHT22;6555;50.468;8.480;2023-08-24T20:45:24;24.60;51.30
12981;DHT22;6555;50.468;8.480;2023-08-24T20:50:56;24.50;51.20
12981;DHT22;6555;50.468;8.480;2023-08-24T20:56:21;24.50;51.10
12981;DHT22;6555;50.468;8.480;2023-08-24T21:01:53;24.30;50.60
12981;DHT22;6555;50.468;8.480;2023-08-24T21:07:17;24.20;51.20
12981;DHT22;6555;50.468;8.480;2023-08-24T21:12:48;24.10;51.30
12981;DHT22;6555;50.468;8.480;2023-08-24T21:18:09;24.00;51.40
12981;DHT22;6555;50.468;8.480;2023-08-24T21:23:42;24.00;51.10
12981;DHT22;6555;50.468;8.480;2023-08-24T21:29:05;23.90;51.60
12981;DHT22;6555;50.468;8.480;2023-08-24T21:34:47;23.80;51.10
12981;DHT22;6555;50.468;8.480;2023-08-24T21:40:06;23.70;51.80
12981;DHT22;6555;50.468;8.480;2023-08-24T21:45:54;23.70;51.20
12981;DHT22;6555;50.468;8.480;2023-08-24T21:51:12;23.60;51.70
12981;DHT22;6555;50.468;8.480;2023-08-24T21:56:45;23.50;50.90
12981;DHT22;6555;50.468;8.480;2023-08-24T22:02:07;23.40;51.50
12981;DHT22;6555;50.468;8.480;2023-08-24T22:07:40;23.30;51.50
12981;DHT22;6555;50.468;8.480;2023-08-24T22:13:01;23.20;51.80
12981;DHT22;6555;50.468;8.480;2023-08-24T22:18:36;23.20;51.20
12981;DHT22;6555;50.468;8.480;2023-08-24T22:23:53;23.10;52.10
12981;DHT22;6555;50.468;8.480;2023-08-24T22:29:28;23.10;51.20
12981;DHT22;6555;50.468;8.480;2023-08-24T22:34:49;22.90;52.00
12981;DHT22;6555;50.468;8.480;2023-08-24T22:40:26;22.90;51.60
12981;DHT22;6555;50.468;8.480;2023-08-24T22:45:44;22.70;52.30
12981;DHT22;6555;50.468;8.480;2023-08-24T22:51:21;22.70;51.70
12981;DHT22;6555;50.468;8.480;2023-08-24T22:56:38;22.60;52.40
12981;DHT22;6555;50.468;8.480;2023-08-24T23:02:10;22.60;51.60
12981;DHT22;6555;50.468;8.480;2023-08-24T23:07:29;22.60;52.40
12981;DHT22;6555;50.468;8.480;2023-08-24T23:13:04;22.50;52.00
12981;DHT22;6555;50.468;8.480;2023-08-24T23:18:34;22.40;52.60
12981;DHT22;6555;50.468;8.480;2023-08-24T23:24:07;22.40;52.80
12981;DHT22;6555;50.468;8.480;2023-08-24T23:29:44;22.40;52.90
12981;DHT22;6555;50.468;8.480;2023-08-24T23:35:18;22.30;52.20
12981;DHT22;6555;50.468;8.480;2023-08-24T23:40:36;22.30;52.80
12981;DHT22;6555;50.468;8.480;2023-08-24T23:46:06;22.30;52.40
12981;DHT22;6555;50.468;8.480;2023-08-24T23:51:23;22.20;52.80
12981;DHT22;6555;50.468;8.480;2023-08-24T23:56:58;22.20;52.10
